Terminal Aerodrome Forecast
Issued by NWS Green Bay, WI

Home | Current Version | Previous Version | Text Only | Print | Product List | Glossary Off
Versions: 1 2 3 4 5 6 7 8 9 10 11 12 13 14 15 16 17 18 19 20 21 22 23 24 25 26 27 28 29

000
FTUS43 KGRB 241500 AAB
TAFGRB
TAF AMD
KGRB 241519Z 2415/2512 23005KT 5SM BR OVC005
     FM241800 23007KT P6SM SCT008 BKN250
     FM250100 20005KT 5SM BR BKN050
     FM250800 26005KT 5SM BR SCT250=

USA.gov is the U.S. government's official web portal to all federal, state and local government web resources and services.